sensor_id;sensor_type;location;lat;lon;timestamp;P1;durP1;ratioP1;P2;durP2;ratioP2
20150;SDS011;10236;49.638;6.830;2022-09-09T00:00:49;6.97;;;1.70;;
20150;SDS011;10236;49.638;6.830;2022-09-09T00:03:21;8.33;;;1.80;;
20150;SDS011;10236;49.638;6.830;2022-09-09T00:06:00;7.43;;;1.70;;
20150;SDS011;10236;49.638;6.830;2022-09-09T00:08:39;5.77;;;1.57;;
20150;SDS011;10236;49.638;6.830;2022-09-09T00:11:07;6.33;;;1.53;;
20150;SDS011;10236;49.638;6.830;2022-09-09T00:13:39;5.77;;;1.50;;
20150;SDS011;10236;49.638;6.830;2022-09-09T00:16:17;5.77;;;1.40;;
20150;SDS011;10236;49.638;6.830;2022-09-09T00:18:48;5.83;;;1.43;;
20150;SDS011;10236;49.638;6.830;2022-09-09T00:21:16;10.17;;;1.50;;
20150;SDS011;10236;49.638;6.830;2022-09-09T00:23:50;7.77;;;2.27;;
20150;SDS011;10236;49.638;6.830;2022-09-09T00:26:34;4.37;;;1.50;;
20150;SDS011;10236;49.638;6.830;2022-09-09T00:31:33;7.50;;;1.50;;
20150;SDS011;10236;49.638;6.830;2022-09-09T00:34:03;6.80;;;1.33;;
20150;SDS011;10236;49.638;6.830;2022-09-09T00:36:31;7.33;;;1.47;;
20150;SDS011;10236;49.638;6.830;2022-09-09T00:38:59;4.47;;;1.43;;
20150;SDS011;10236;49.638;6.830;2022-09-09T00:43:56;4.07;;;1.10;;
20150;SDS011;10236;49.638;6.830;2022-09-09T00:46:37;5.60;;;1.37;;
20150;SDS011;10236;49.638;6.830;2022-09-09T00:57:28;7.17;;;1.60;;
20150;SDS011;10236;49.638;6.830;2022-09-09T01:00:39;2.70;;;1.20;;
20150;SDS011;10236;49.638;6.830;2022-09-09T01:03:02;5.07;;;1.43;;
20150;SDS011;10236;49.638;6.830;2022-09-09T01:07:57;6.47;;;1.57;;
20150;SDS011;10236;49.638;6.830;2022-09-09T01:10:39;3.70;;;1.27;;
20150;SDS011;10236;49.638;6.830;2022-09-09T01:13:09;6.73;;;1.20;;
20150;SDS011;10236;49.638;6.830;2022-09-09T01:15:38;7.83;;;1.53;;
20150;SDS011;10236;49.638;6.830;2022-09-09T01:18:08;4.73;;;1.07;;
20150;SDS011;10236;49.638;6.830;2022-09-09T01:20:43;5.73;;;1.20;;
20150;SDS011;10236;49.638;6.830;2022-09-09T01:26:02;5.97;;;1.30;;
20150;SDS011;10236;49.638;6.830;2022-09-09T01:28:30;4.60;;;1.50;;
20150;SDS011;10236;49.638;6.830;2022-09-09T01:31:00;6.53;;;1.30;;
20150;SDS011;10236;49.638;6.830;2022-09-09T01:33:26;8.27;;;1.73;;
20150;SDS011;10236;49.638;6.830;2022-09-09T01:35:54;7.00;;;1.37;;
20150;SDS011;10236;49.638;6.830;2022-09-09T01:38:21;3.03;;;1.23;;
20150;SDS011;10236;49.638;6.830;2022-09-09T01:40:48;4.27;;;1.27;;
20150;SDS011;10236;49.638;6.830;2022-09-09T01:43:14;3.03;;;1.10;;
20150;SDS011;10236;49.638;6.830;2022-09-09T01:45:40;5.33;;;1.77;;
20150;SDS011;10236;49.638;6.830;2022-09-09T01:48:08;6.93;;;1.50;;
20150;SDS011;10236;49.638;6.830;2022-09-09T01:50:34;4.40;;;1.50;;
20150;SDS011;10236;49.638;6.830;2022-09-09T01:53:00;5.10;;;1.33;;
20150;SDS011;10236;49.638;6.830;2022-09-09T01:55:31;4.10;;;1.17;;
20150;SDS011;10236;49.638;6.830;2022-09-09T01:58:02;5.50;;;1.57;;
20150;SDS011;10236;49.638;6.830;2022-09-09T02:00:34;5.07;;;1.30;;
20150;SDS011;10236;49.638;6.830;2022-09-09T02:08:05;9.10;;;2.00;;
20150;SDS011;10236;49.638;6.830;2022-09-09T02:10:33;3.13;;;1.20;;
20150;SDS011;10236;49.638;6.830;2022-09-09T02:13:23;7.13;;;1.63;;
20150;SDS011;10236;49.638;6.830;2022-09-09T02:18:19;4.43;;;1.30;;
20150;SDS011;10236;49.638;6.830;2022-09-09T02:20:48;9.03;;;1.90;;
20150;SDS011;10236;49.638;6.830;2022-09-09T02:23:14;10.30;;;1.67;;
20150;SDS011;10236;49.638;6.830;2022-09-09T02:25:40;8.00;;;1.63;;
20150;SDS011;10236;49.638;6.830;2022-09-09T02:28:07;3.90;;;1.30;;
20150;SDS011;10236;49.638;6.830;2022-09-09T02:30:34;6.60;;;1.47;;
20150;SDS011;10236;49.638;6.830;2022-09-09T02:33:01;5.27;;;1.27;;
20150;SDS011;10236;49.638;6.830;2022-09-09T02:35:28;8.73;;;1.30;;
20150;SDS011;10236;49.638;6.830;2022-09-09T02:37:56;3.60;;;1.20;;
20150;SDS011;10236;49.638;6.830;2022-09-09T02:40:22;8.07;;;1.90;;
20150;SDS011;10236;49.638;6.830;2022-09-09T02:42:48;6.93;;;1.63;;
20150;SDS011;10236;49.638;6.830;2022-09-09T02:45:16;5.47;;;1.67;;
20150;SDS011;10236;49.638;6.830;2022-09-09T02:53:08;3.77;;;1.40;;
20150;SDS011;10236;49.638;6.830;2022-09-09T02:55:41;6.03;;;1.60;;
20150;SDS011;10236;49.638;6.830;2022-09-09T02:58:10;6.07;;;1.60;;
20150;SDS011;10236;49.638;6.830;2022-09-09T03:00:37;6.17;;;1.50;;
20150;SDS011;10236;49.638;6.830;2022-09-09T03:03:04;5.20;;;1.50;;
20150;SDS011;10236;49.638;6.830;2022-09-09T03:05:30;9.90;;;1.90;;
20150;SDS011;10236;49.638;6.830;2022-09-09T03:07:56;5.60;;;1.30;;
20150;SDS011;10236;49.638;6.830;2022-09-09T03:10:22;3.53;;;1.30;;
20150;SDS011;10236;49.638;6.830;2022-09-09T03:12:48;2.13;;;1.30;;
20150;SDS011;10236;49.638;6.830;2022-09-09T03:15:15;5.33;;;1.43;;
20150;SDS011;10236;49.638;6.830;2022-09-09T03:17:41;5.13;;;1.30;;
20150;SDS011;10236;49.638;6.830;2022-09-09T03:20:07;3.27;;;1.60;;
20150;SDS011;10236;49.638;6.830;2022-09-09T03:22:34;6.17;;;1.60;;
20150;SDS011;10236;49.638;6.830;2022-09-09T03:25:00;6.03;;;1.50;;
20150;SDS011;10236;49.638;6.830;2022-09-09T03:27:27;6.10;;;1.70;;
20150;SDS011;10236;49.638;6.830;2022-09-09T03:29:53;9.17;;;1.60;;
20150;SDS011;10236;49.638;6.830;2022-09-09T03:32:20;3.97;;;1.80;;
20150;SDS011;10236;49.638;6.830;2022-09-09T03:34:47;9.33;;;2.00;;
20150;SDS011;10236;49.638;6.830;2022-09-09T03:37:14;5.20;;;1.57;;
20150;SDS011;10236;49.638;6.830;2022-09-09T03:39:40;5.03;;;1.50;;
20150;SDS011;10236;49.638;6.830;2022-09-09T03:42:06;7.17;;;1.57;;
20150;SDS011;10236;49.638;6.830;2022-09-09T03:44:32;5.60;;;1.73;;
20150;SDS011;10236;49.638;6.830;2022-09-09T03:46:58;7.43;;;1.70;;
20150;SDS011;10236;49.638;6.830;2022-09-09T03:49:27;6.53;;;1.77;;
20150;SDS011;10236;49.638;6.830;2022-09-09T03:51:54;11.07;;;1.57;;
20150;SDS011;10236;49.638;6.830;2022-09-09T03:54:21;9.30;;;2.03;;
20150;SDS011;10236;49.638;6.830;2022-09-09T03:56:47;7.27;;;1.80;;
20150;SDS011;10236;49.638;6.830;2022-09-09T03:59:13;6.70;;;1.60;;
20150;SDS011;10236;49.638;6.830;2022-09-09T04:01:39;7.23;;;1.70;;
20150;SDS011;10236;49.638;6.830;2022-09-09T04:04:05;6.53;;;1.80;;
20150;SDS011;10236;49.638;6.830;2022-09-09T04:06:31;6.13;;;1.73;;
20150;SDS011;10236;49.638;6.830;2022-09-09T04:08:57;7.50;;;1.97;;
20150;SDS011;10236;49.638;6.830;2022-09-09T04:11:23;8.43;;;1.73;;
20150;SDS011;10236;49.638;6.830;2022-09-09T04:13:49;8.80;;;2.00;;
20150;SDS011;10236;49.638;6.830;2022-09-09T04:16:15;8.13;;;2.17;;
20150;SDS011;10236;49.638;6.830;2022-09-09T04:18:41;7.70;;;1.50;;
20150;SDS011;10236;49.638;6.830;2022-09-09T04:21:08;10.70;;;2.07;;
20150;SDS011;10236;49.638;6.830;2022-09-09T04:23:35;9.13;;;1.97;;
20150;SDS011;10236;49.638;6.830;2022-09-09T04:26:01;10.03;;;2.07;;
20150;SDS011;10236;49.638;6.830;2022-09-09T04:28:28;10.33;;;2.40;;
20150;SDS011;10236;49.638;6.830;2022-09-09T04:30:55;7.30;;;1.60;;
20150;SDS011;10236;49.638;6.830;2022-09-09T04:33:22;7.10;;;1.70;;
20150;SDS011;10236;49.638;6.830;2022-09-09T04:35:50;8.37;;;1.80;;
20150;SDS011;10236;49.638;6.830;2022-09-09T04:38:18;6.87;;;1.87;;
20150;SDS011;10236;49.638;6.830;2022-09-09T04:40:47;5.93;;;1.57;;
20150;SDS011;10236;49.638;6.830;2022-09-09T04:43:14;7.17;;;1.83;;
20150;SDS011;10236;49.638;6.830;2022-09-09T04:45:40;11.60;;;2.20;;
20150;SDS011;10236;49.638;6.830;2022-09-09T04:48:06;18.33;;;2.50;;
20150;SDS011;10236;49.638;6.830;2022-09-09T04:50:32;11.70;;;2.80;;
20150;SDS011;10236;49.638;6.830;2022-09-09T04:53:02;9.73;;;1.73;;
20150;SDS011;10236;49.638;6.830;2022-09-09T04:55:29;7.07;;;1.80;;
20150;SDS011;10236;49.638;6.830;2022-09-09T04:57:55;8.80;;;1.97;;
20150;SDS011;10236;49.638;6.830;2022-09-09T05:00:22;12.33;;;2.23;;
20150;SDS011;10236;49.638;6.830;2022-09-09T05:02:48;7.10;;;1.50;;
20150;SDS011;10236;49.638;6.830;2022-09-09T05:05:14;9.10;;;2.20;;
20150;SDS011;10236;49.638;6.830;2022-09-09T05:07:41;8.83;;;2.00;;
20150;SDS011;10236;49.638;6.830;2022-09-09T05:10:08;7.70;;;1.90;;
20150;SDS011;10236;49.638;6.830;2022-09-09T05:12:35;9.50;;;2.63;;
20150;SDS011;10236;49.638;6.830;2022-09-09T05:15:01;11.20;;;1.87;;
20150;SDS011;10236;49.638;6.830;2022-09-09T05:17:27;8.07;;;1.90;;
20150;SDS011;10236;49.638;6.830;2022-09-09T05:19:53;9.13;;;1.87;;
20150;SDS011;10236;49.638;6.830;2022-09-09T05:22:20;9.73;;;2.43;;
20150;SDS011;10236;49.638;6.830;2022-09-09T05:24:47;8.83;;;1.40;;
20150;SDS011;10236;49.638;6.830;2022-09-09T05:27:15;11.33;;;1.97;;
20150;SDS011;10236;49.638;6.830;2022-09-09T05:29:41;6.47;;;1.70;;
20150;SDS011;10236;49.638;6.830;2022-09-09T05:32:09;6.07;;;1.67;;
20150;SDS011;10236;49.638;6.830;2022-09-09T05:34:35;13.83;;;1.90;;
20150;SDS011;10236;49.638;6.830;2022-09-09T05:37:02;8.67;;;2.03;;
20150;SDS011;10236;49.638;6.830;2022-09-09T05:39:29;11.60;;;1.80;;
20150;SDS011;10236;49.638;6.830;2022-09-09T05:41:55;8.80;;;1.87;;
20150;SDS011;10236;49.638;6.830;2022-09-09T05:44:21;6.93;;;1.93;;
20150;SDS011;10236;49.638;6.830;2022-09-09T05:46:52;6.13;;;1.80;;
20150;SDS011;10236;49.638;6.830;2022-09-09T05:49:19;11.67;;;2.10;;
20150;SDS011;10236;49.638;6.830;2022-09-09T05:51:46;9.93;;;2.20;;
20150;SDS011;10236;49.638;6.830;2022-09-09T05:54:13;9.67;;;1.80;;
20150;SDS011;10236;49.638;6.830;2022-09-09T05:56:40;6.20;;;1.77;;
20150;SDS011;10236;49.638;6.830;2022-09-09T06:13:34;10.73;;;2.17;;
20150;SDS011;10236;49.638;6.830;2022-09-09T06:16:02;9.90;;;2.23;;
20150;SDS011;10236;49.638;6.830;2022-09-09T06:18:29;11.90;;;2.07;;
20150;SDS011;10236;49.638;6.830;2022-09-09T06:20:56;9.90;;;2.10;;
20150;SDS011;10236;49.638;6.830;2022-09-09T06:23:22;11.03;;;2.27;;
20150;SDS011;10236;49.638;6.830;2022-09-09T06:25:48;10.13;;;2.37;;
20150;SDS011;10236;49.638;6.830;2022-09-09T06:28:14;12.83;;;2.40;;
20150;SDS011;10236;49.638;6.830;2022-09-09T06:30:41;12.00;;;2.33;;
20150;SDS011;10236;49.638;6.830;2022-09-09T06:33:07;12.67;;;2.47;;
20150;SDS011;10236;49.638;6.830;2022-09-09T06:35:34;13.03;;;2.57;;
20150;SDS011;10236;49.638;6.830;2022-09-09T06:38:00;13.03;;;2.00;;
20150;SDS011;10236;49.638;6.830;2022-09-09T06:40:26;7.57;;;2.00;;
20150;SDS011;10236;49.638;6.830;2022-09-09T06:42:52;7.27;;;1.77;;
20150;SDS011;10236;49.638;6.830;2022-09-09T06:45:18;7.27;;;1.90;;
20150;SDS011;10236;49.638;6.830;2022-09-09T06:47:44;8.47;;;2.03;;
20150;SDS011;10236;49.638;6.830;2022-09-09T06:50:10;10.40;;;2.20;;
20150;SDS011;10236;49.638;6.830;2022-09-09T06:52:36;6.13;;;1.70;;
20150;SDS011;10236;49.638;6.830;2022-09-09T06:55:02;7.43;;;1.50;;
20150;SDS011;10236;49.638;6.830;2022-09-09T06:57:29;6.13;;;1.30;;
20150;SDS011;10236;49.638;6.830;2022-09-09T06:59:55;10.53;;;2.03;;
20150;SDS011;10236;49.638;6.830;2022-09-09T07:02:20;9.13;;;1.70;;
20150;SDS011;10236;49.638;6.830;2022-09-09T07:04:46;9.47;;;1.73;;
20150;SDS011;10236;49.638;6.830;2022-09-09T07:07:16;9.20;;;1.73;;
20150;SDS011;10236;49.638;6.830;2022-09-09T07:09:42;10.60;;;1.80;;
20150;SDS011;10236;49.638;6.830;2022-09-09T07:12:10;7.63;;;1.20;;
20150;SDS011;10236;49.638;6.830;2022-09-09T07:14:37;14.17;;;2.13;;
20150;SDS011;10236;49.638;6.830;2022-09-09T07:17:04;6.50;;;1.53;;
20150;SDS011;10236;49.638;6.830;2022-09-09T07:19:30;6.33;;;1.73;;
20150;SDS011;10236;49.638;6.830;2022-09-09T07:21:56;6.80;;;1.50;;
20150;SDS011;10236;49.638;6.830;2022-09-09T07:24:22;6.60;;;1.50;;
20150;SDS011;10236;49.638;6.830;2022-09-09T07:26:48;11.90;;;2.13;;
20150;SDS011;10236;49.638;6.830;2022-09-09T07:29:14;6.57;;;1.63;;
20150;SDS011;10236;49.638;6.830;2022-09-09T07:31:40;12.17;;;2.10;;
20150;SDS011;10236;49.638;6.830;2022-09-09T07:34:06;5.70;;;1.73;;
20150;SDS011;10236;49.638;6.830;2022-09-09T07:36:33;6.67;;;1.50;;
20150;SDS011;10236;49.638;6.830;2022-09-09T07:39:01;9.53;;;1.60;;
20150;SDS011;10236;49.638;6.830;2022-09-09T07:41:28;8.73;;;2.03;;
20150;SDS011;10236;49.638;6.830;2022-09-09T07:43:55;7.87;;;1.63;;
20150;SDS011;10236;49.638;6.830;2022-09-09T07:46:23;7.10;;;1.53;;
20150;SDS011;10236;49.638;6.830;2022-09-09T07:48:50;7.50;;;2.03;;
20150;SDS011;10236;49.638;6.830;2022-09-09T07:51:18;6.53;;;1.83;;
20150;SDS011;10236;49.638;6.830;2022-09-09T07:53:47;8.30;;;1.47;;
20150;SDS011;10236;49.638;6.830;2022-09-09T07:56:14;7.97;;;1.63;;
20150;SDS011;10236;49.638;6.830;2022-09-09T07:58:41;10.50;;;1.50;;
20150;SDS011;10236;49.638;6.830;2022-09-09T08:01:08;9.67;;;1.53;;
20150;SDS011;10236;49.638;6.830;2022-09-09T08:03:35;7.07;;;1.83;;
20150;SDS011;10236;49.638;6.830;2022-09-09T08:06:02;7.33;;;2.17;;
20150;SDS011;10236;49.638;6.830;2022-09-09T08:08:29;9.90;;;1.97;;
20150;SDS011;10236;49.638;6.830;2022-09-09T08:11:01;6.70;;;1.67;;
20150;SDS011;10236;49.638;6.830;2022-09-09T08:13:27;8.77;;;1.80;;
20150;SDS011;10236;49.638;6.830;2022-09-09T08:15:53;11.50;;;2.00;;
20150;SDS011;10236;49.638;6.830;2022-09-09T08:18:19;6.90;;;1.87;;
20150;SDS011;10236;49.638;6.830;2022-09-09T08:20:45;11.93;;;2.50;;
20150;SDS011;10236;49.638;6.830;2022-09-09T08:23:11;11.27;;;2.57;;
20150;SDS011;10236;49.638;6.830;2022-09-09T08:25:37;13.63;;;2.57;;
20150;SDS011;10236;49.638;6.830;2022-09-09T08:28:03;8.73;;;2.23;;
20150;SDS011;10236;49.638;6.830;2022-09-09T08:30:29;11.67;;;2.40;;
20150;SDS011;10236;49.638;6.830;2022-09-09T08:32:55;9.10;;;2.57;;
20150;SDS011;10236;49.638;6.830;2022-09-09T08:35:20;8.87;;;2.63;;
20150;SDS011;10236;49.638;6.830;2022-09-09T08:37:46;12.20;;;2.73;;
20150;SDS011;10236;49.638;6.830;2022-09-09T08:40:17;8.57;;;2.23;;
20150;SDS011;10236;49.638;6.830;2022-09-09T08:42:47;7.90;;;2.30;;
20150;SDS011;10236;49.638;6.830;2022-09-09T08:47:51;10.73;;;2.37;;
20150;SDS011;10236;49.638;6.830;2022-09-09T08:50:26;10.53;;;2.03;;
20150;SDS011;10236;49.638;6.830;2022-09-09T08:58:14;11.90;;;2.60;;
20150;SDS011;10236;49.638;6.830;2022-09-09T09:00:48;9.83;;;2.43;;
20150;SDS011;10236;49.638;6.830;2022-09-09T09:03:23;11.07;;;2.20;;
20150;SDS011;10236;49.638;6.830;2022-09-09T09:05:59;7.27;;;1.93;;
20150;SDS011;10236;49.638;6.830;2022-09-09T09:08:43;8.90;;;2.00;;
20150;SDS011;10236;49.638;6.830;2022-09-09T09:11:10;11.93;;;2.03;;
20150;SDS011;10236;49.638;6.830;2022-09-09T09:13:42;10.70;;;1.70;;
20150;SDS011;10236;49.638;6.830;2022-09-09T09:16:13;9.47;;;1.80;;
20150;SDS011;10236;49.638;6.830;2022-09-09T09:18:40;5.50;;;1.70;;
20150;SDS011;10236;49.638;6.830;2022-09-09T09:21:19;5.03;;;1.83;;
20150;SDS011;10236;49.638;6.830;2022-09-09T09:23:51;8.77;;;2.20;;
20150;SDS011;10236;49.638;6.830;2022-09-09T09:26:19;9.20;;;1.63;;
20150;SDS011;10236;49.638;6.830;2022-09-09T09:28:47;8.63;;;2.00;;
20150;SDS011;10236;49.638;6.830;2022-09-09T09:31:13;11.30;;;1.93;;
20150;SDS011;10236;49.638;6.830;2022-09-09T09:33:52;8.53;;;1.73;;
20150;SDS011;10236;49.638;6.830;2022-09-09T09:36:19;10.10;;;1.50;;
20150;SDS011;10236;49.638;6.830;2022-09-09T09:38:58;9.00;;;1.63;;
20150;SDS011;10236;49.638;6.830;2022-09-09T09:41:43;15.77;;;2.50;;
20150;SDS011;10236;49.638;6.830;2022-09-09T09:44:22;6.33;;;1.77;;
20150;SDS011;10236;49.638;6.830;2022-09-09T09:46:48;6.90;;;1.53;;
20150;SDS011;10236;49.638;6.830;2022-09-09T09:49:14;10.17;;;1.70;;
20150;SDS011;10236;49.638;6.830;2022-09-09T09:51:40;9.73;;;2.00;;
20150;SDS011;10236;49.638;6.830;2022-09-09T09:54:18;7.77;;;1.90;;
20150;SDS011;10236;49.638;6.830;2022-09-09T09:56:48;5.70;;;1.80;;
20150;SDS011;10236;49.638;6.830;2022-09-09T10:01:49;5.93;;;1.53;;
20150;SDS011;10236;49.638;6.830;2022-09-09T10:04:16;7.30;;;1.77;;
20150;SDS011;10236;49.638;6.830;2022-09-09T10:06:44;4.80;;;1.10;;
20150;SDS011;10236;49.638;6.830;2022-09-09T10:09:21;6.87;;;1.53;;
20150;SDS011;10236;49.638;6.830;2022-09-09T10:19:42;6.93;;;1.40;;
20150;SDS011;10236;49.638;6.830;2022-09-09T10:22:15;6.43;;;1.20;;
20150;SDS011;10236;49.638;6.830;2022-09-09T10:30:43;5.80;;;1.60;;
20150;SDS011;10236;49.638;6.830;2022-09-09T10:33:10;9.23;;;2.10;;
20150;SDS011;10236;49.638;6.830;2022-09-09T10:35:52;9.13;;;1.53;;
20150;SDS011;10236;49.638;6.830;2022-09-09T10:43:29;9.77;;;1.83;;
20150;SDS011;10236;49.638;6.830;2022-09-09T10:49:07;8.63;;;2.10;;
20150;SDS011;10236;49.638;6.830;2022-09-09T10:54:11;6.80;;;1.90;;
20150;SDS011;10236;49.638;6.830;2022-09-09T10:56:38;7.23;;;1.43;;
20150;SDS011;10236;49.638;6.830;2022-09-09T10:59:14;5.57;;;1.30;;
20150;SDS011;10236;49.638;6.830;2022-09-09T11:01:52;10.83;;;1.70;;
20150;SDS011;10236;49.638;6.830;2022-09-09T11:04:24;7.23;;;1.47;;
20150;SDS011;10236;49.638;6.830;2022-09-09T11:06:53;5.97;;;1.30;;
20150;SDS011;10236;49.638;6.830;2022-09-09T11:09:21;4.83;;;1.03;;
20150;SDS011;10236;49.638;6.830;2022-09-09T11:11:52;3.83;;;1.17;;
20150;SDS011;10236;49.638;6.830;2022-09-09T11:16:59;3.57;;;0.80;;
20150;SDS011;10236;49.638;6.830;2022-09-09T11:19:30;3.80;;;0.80;;
20150;SDS011;10236;49.638;6.830;2022-09-09T11:21:59;5.53;;;1.10;;
20150;SDS011;10236;49.638;6.830;2022-09-09T11:24:35;3.93;;;0.93;;
20150;SDS011;10236;49.638;6.830;2022-09-09T11:37:08;4.03;;;0.90;;
20150;SDS011;10236;49.638;6.830;2022-09-09T11:42:25;3.37;;;1.07;;
20150;SDS011;10236;49.638;6.830;2022-09-09T11:44:52;7.33;;;1.20;;
20150;SDS011;10236;49.638;6.830;2022-09-09T11:47:28;3.67;;;0.90;;
20150;SDS011;10236;49.638;6.830;2022-09-09T11:50:40;4.03;;;1.13;;
20150;SDS011;10236;49.638;6.830;2022-09-09T11:52:42;9.17;;;1.70;;
20150;SDS011;10236;49.638;6.830;2022-09-09T11:55:11;5.43;;;1.20;;
20150;SDS011;10236;49.638;6.830;2022-09-09T11:57:38;5.73;;;1.47;;
20150;SDS011;10236;49.638;6.830;2022-09-09T12:00:04;8.57;;;1.90;;
20150;SDS011;10236;49.638;6.830;2022-09-09T12:02:32;5.83;;;1.50;;
20150;SDS011;10236;49.638;6.830;2022-09-09T12:05:05;6.27;;;2.07;;
20150;SDS011;10236;49.638;6.830;2022-09-09T12:07:35;4.47;;;1.27;;
20150;SDS011;10236;49.638;6.830;2022-09-09T12:12:30;3.27;;;1.40;;
20150;SDS011;10236;49.638;6.830;2022-09-09T12:15:01;5.73;;;1.27;;
20150;SDS011;10236;49.638;6.830;2022-09-09T12:17:31;3.10;;;0.80;;
20150;SDS011;10236;49.638;6.830;2022-09-09T12:28:04;4.87;;;0.77;;
20150;SDS011;10236;49.638;6.830;2022-09-09T12:30:34;3.23;;;0.70;;
20150;SDS011;10236;49.638;6.830;2022-09-09T12:33:06;3.30;;;1.00;;
20150;SDS011;10236;49.638;6.830;2022-09-09T12:35:34;5.50;;;1.33;;
20150;SDS011;10236;49.638;6.830;2022-09-09T12:38:03;5.80;;;1.10;;
20150;SDS011;10236;49.638;6.830;2022-09-09T12:40:33;5.30;;;1.00;;
20150;SDS011;10236;49.638;6.830;2022-09-09T12:43:20;5.13;;;1.20;;
20150;SDS011;10236;49.638;6.830;2022-09-09T12:45:47;3.40;;;1.00;;
20150;SDS011;10236;49.638;6.830;2022-09-09T12:48:15;5.37;;;0.97;;
20150;SDS011;10236;49.638;6.830;2022-09-09T12:53:22;3.20;;;1.17;;
20150;SDS011;10236;49.638;6.830;2022-09-09T12:55:52;5.33;;;1.20;;
20150;SDS011;10236;49.638;6.830;2022-09-09T12:58:20;5.57;;;1.23;;
20150;SDS011;10236;49.638;6.830;2022-09-09T13:00:50;3.67;;;0.93;;
20150;SDS011;10236;49.638;6.830;2022-09-09T13:03:18;3.83;;;1.13;;
20150;SDS011;10236;49.638;6.830;2022-09-09T13:05:47;3.60;;;1.10;;
20150;SDS011;10236;49.638;6.830;2022-09-09T13:08:14;4.13;;;1.40;;
20150;SDS011;10236;49.638;6.830;2022-09-09T13:10:46;2.93;;;1.10;;
20150;SDS011;10236;49.638;6.830;2022-09-09T13:13:14;4.27;;;1.20;;
20150;SDS011;10236;49.638;6.830;2022-09-09T13:15:47;3.45;;;0.90;;
20150;SDS011;10236;49.638;6.830;2022-09-09T13:18:14;4.35;;;1.00;;
20150;SDS011;10236;49.638;6.830;2022-09-09T13:20:45;2.55;;;1.10;;
20150;SDS011;10236;49.638;6.830;2022-09-09T13:23:13;3.08;;;0.70;;
20150;SDS011;10236;49.638;6.830;2022-09-09T13:25:40;2.97;;;0.80;;
20150;SDS011;10236;49.638;6.830;2022-09-09T13:28:18;3.90;;;0.88;;
20150;SDS011;10236;49.638;6.830;2022-09-09T13:30:54;3.47;;;0.80;;
20150;SDS011;10236;49.638;6.830;2022-09-09T13:33:24;4.25;;;1.13;;
20150;SDS011;10236;49.638;6.830;2022-09-09T13:35:55;5.60;;;1.30;;
20150;SDS011;10236;49.638;6.830;2022-09-09T13:38:22;4.90;;;0.80;;
20150;SDS011;10236;49.638;6.830;2022-09-09T13:40:52;3.50;;;1.00;;
20150;SDS011;10236;49.638;6.830;2022-09-09T13:43:21;3.07;;;0.93;;
20150;SDS011;10236;49.638;6.830;2022-09-09T13:45:58;4.10;;;1.40;;
20150;SDS011;10236;49.638;6.830;2022-09-09T13:48:24;6.63;;;1.30;;
20150;SDS011;10236;49.638;6.830;2022-09-09T13:51:00;4.53;;;0.90;;
20150;SDS011;10236;49.638;6.830;2022-09-09T13:53:28;3.80;;;0.80;;
20150;SDS011;10236;49.638;6.830;2022-09-09T13:55:54;3.40;;;0.63;;
20150;SDS011;10236;49.638;6.830;2022-09-09T13:58:22;5.77;;;0.80;;
20150;SDS011;10236;49.638;6.830;2022-09-09T14:00:49;3.77;;;0.80;;
20150;SDS011;10236;49.638;6.830;2022-09-09T14:03:15;5.17;;;1.13;;
20150;SDS011;10236;49.638;6.830;2022-09-09T14:26:37;3.80;;;0.87;;
20150;SDS011;10236;49.638;6.830;2022-09-09T14:29:03;1.90;;;0.60;;
20150;SDS011;10236;49.638;6.830;2022-09-09T14:31:29;1.40;;;0.50;;
20150;SDS011;10236;49.638;6.830;2022-09-09T14:33:58;1.77;;;0.40;;
20150;SDS011;10236;49.638;6.830;2022-09-09T14:39:33;1.33;;;0.50;;
20150;SDS011;10236;49.638;6.830;2022-09-09T14:42:02;2.10;;;0.53;;
20150;SDS011;10236;49.638;6.830;2022-09-09T14:44:31;2.07;;;0.30;;
20150;SDS011;10236;49.638;6.830;2022-09-09T14:47:02;0.60;;;0.50;;
20150;SDS011;10236;49.638;6.830;2022-09-09T14:49:28;1.57;;;0.50;;
20150;SDS011;10236;49.638;6.830;2022-09-09T14:52:03;2.63;;;0.60;;
20150;SDS011;10236;49.638;6.830;2022-09-09T14:54:34;1.17;;;0.50;;
20150;SDS011;10236;49.638;6.830;2022-09-09T14:57:03;4.37;;;0.73;;
20150;SDS011;10236;49.638;6.830;2022-09-09T14:59:38;1.87;;;0.93;;
20150;SDS011;10236;49.638;6.830;2022-09-09T15:02:09;2.80;;;0.80;;
20150;SDS011;10236;49.638;6.830;2022-09-09T15:04:38;3.63;;;1.00;;
20150;SDS011;10236;49.638;6.830;2022-09-09T15:07:06;4.00;;;1.10;;
20150;SDS011;10236;49.638;6.830;2022-09-09T15:09:40;3.03;;;0.87;;
20150;SDS011;10236;49.638;6.830;2022-09-09T15:12:12;4.80;;;0.70;;
20150;SDS011;10236;49.638;6.830;2022-09-09T15:14:43;2.00;;;0.60;;
20150;SDS011;10236;49.638;6.830;2022-09-09T15:17:13;3.67;;;0.70;;
20150;SDS011;10236;49.638;6.830;2022-09-09T15:19:39;3.60;;;0.80;;
20150;SDS011;10236;49.638;6.830;2022-09-09T15:22:07;2.17;;;0.67;;
20150;SDS011;10236;49.638;6.830;2022-09-09T15:24:33;3.53;;;0.60;;
20150;SDS011;10236;49.638;6.830;2022-09-09T15:27:00;2.67;;;0.60;;
20150;SDS011;10236;49.638;6.830;2022-09-09T15:29:26;2.30;;;0.70;;
20150;SDS011;10236;49.638;6.830;2022-09-09T15:31:55;5.50;;;0.67;;
20150;SDS011;10236;49.638;6.830;2022-09-09T15:34:21;1.57;;;0.63;;
20150;SDS011;10236;49.638;6.830;2022-09-09T15:36:47;2.70;;;0.60;;
20150;SDS011;10236;49.638;6.830;2022-09-09T15:39:14;4.60;;;0.63;;
20150;SDS011;10236;49.638;6.830;2022-09-09T15:41:41;1.73;;;0.70;;
20150;SDS011;10236;49.638;6.830;2022-09-09T15:44:08;2.42;;;0.60;;
20150;SDS011;10236;49.638;6.830;2022-09-09T15:46:36;3.97;;;0.85;;
20150;SDS011;10236;49.638;6.830;2022-09-09T15:49:05;1.58;;;0.70;;
20150;SDS011;10236;49.638;6.830;2022-09-09T15:51:32;3.10;;;0.90;;
20150;SDS011;10236;49.638;6.830;2022-09-09T15:53:58;3.60;;;1.00;;
20150;SDS011;10236;49.638;6.830;2022-09-09T15:56:25;1.70;;;1.00;;
20150;SDS011;10236;49.638;6.830;2022-09-09T15:58:52;3.37;;;0.90;;
20150;SDS011;10236;49.638;6.830;2022-09-09T16:01:19;2.97;;;0.90;;
20150;SDS011;10236;49.638;6.830;2022-09-09T16:03:45;2.83;;;1.00;;
20150;SDS011;10236;49.638;6.830;2022-09-09T16:06:12;2.27;;;1.07;;
20150;SDS011;10236;49.638;6.830;2022-09-09T16:08:41;2.40;;;1.00;;
20150;SDS011;10236;49.638;6.830;2022-09-09T16:11:12;4.03;;;1.17;;
20150;SDS011;10236;49.638;6.830;2022-09-09T16:13:40;2.60;;;1.00;;
20150;SDS011;10236;49.638;6.830;2022-09-09T16:16:07;3.60;;;1.00;;
20150;SDS011;10236;49.638;6.830;2022-09-09T16:18:37;4.33;;;1.00;;
20150;SDS011;10236;49.638;6.830;2022-09-09T16:21:03;5.70;;;1.17;;
20150;SDS011;10236;49.638;6.830;2022-09-09T16:23:30;6.47;;;1.00;;
20150;SDS011;10236;49.638;6.830;2022-09-09T16:25:56;3.63;;;1.23;;
20150;SDS011;10236;49.638;6.830;2022-09-09T16:28:22;6.23;;;1.10;;
20150;SDS011;10236;49.638;6.830;2022-09-09T16:30:48;4.23;;;1.23;;
20150;SDS011;10236;49.638;6.830;2022-09-09T16:33:15;5.83;;;1.43;;
20150;SDS011;10236;49.638;6.830;2022-09-09T16:35:41;6.07;;;1.93;;
20150;SDS011;10236;49.638;6.830;2022-09-09T16:38:07;1.40;;;0.70;;
20150;SDS011;10236;49.638;6.830;2022-09-09T16:40:39;1.90;;;0.60;;
20150;SDS011;10236;49.638;6.830;2022-09-09T16:43:14;1.07;;;0.53;;
20150;SDS011;10236;49.638;6.830;2022-09-09T16:45:43;1.43;;;0.53;;
20150;SDS011;10236;49.638;6.830;2022-09-09T16:48:09;2.67;;;0.63;;
20150;SDS011;10236;49.638;6.830;2022-09-09T16:50:35;2.10;;;0.70;;
20150;SDS011;10236;49.638;6.830;2022-09-09T16:53:01;2.90;;;0.47;;
20150;SDS011;10236;49.638;6.830;2022-09-09T16:55:36;2.33;;;0.50;;
20150;SDS011;10236;49.638;6.830;2022-09-09T16:58:02;1.50;;;0.70;;
20150;SDS011;10236;49.638;6.830;2022-09-09T17:00:28;2.93;;;0.60;;
20150;SDS011;10236;49.638;6.830;2022-09-09T17:02:54;1.93;;;0.50;;
20150;SDS011;10236;49.638;6.830;2022-09-09T17:05:20;5.10;;;0.90;;
20150;SDS011;10236;49.638;6.830;2022-09-09T17:07:48;4.60;;;0.73;;